sensor_id;sensor_type;location;lat;lon;timestamp;temperature;humidity
64951;DHT22;51482;47.014;7.652;2022-09-09T00:03:47;14.70;99.90
64951;DHT22;51482;47.014;7.652;2022-09-09T00:06:27;14.70;99.90
64951;DHT22;51482;47.014;7.652;2022-09-09T00:09:03;15.10;99.90
64951;DHT22;51482;47.014;7.652;2022-09-09T00:14:29;15.20;99.90
64951;DHT22;51482;47.014;7.652;2022-09-09T00:17:02;15.10;99.90
64951;DHT22;51482;47.014;7.652;2022-09-09T00:19:53;15.00;99.90
64951;DHT22;51482;47.014;7.652;2022-09-09T00:22:23;14.60;99.90
64951;DHT22;51482;47.014;7.652;2022-09-09T00:24:57;14.50;99.90
64951;DHT22;51482;47.014;7.652;2022-09-09T00:27:45;14.50;99.90
64951;DHT22;51482;47.014;7.652;2022-09-09T00:32:46;14.40;99.90
64951;DHT22;51482;47.014;7.652;2022-09-09T00:35:22;14.40;99.90
64951;DHT22;51482;47.014;7.652;2022-09-09T00:37:53;14.30;99.90
64951;DHT22;51482;47.014;7.652;2022-09-09T00:40:24;14.80;99.90
64951;DHT22;51482;47.014;7.652;2022-09-09T00:51:41;14.50;99.90
64951;DHT22;51482;47.014;7.652;2022-09-09T00:54:44;14.20;99.90
64951;DHT22;51482;47.014;7.652;2022-09-09T00:57:29;14.10;99.90
64951;DHT22;51482;47.014;7.652;2022-09-09T01:00:20;14.10;99.90
64951;DHT22;51482;47.014;7.652;2022-09-09T01:02:52;14.00;99.90
64951;DHT22;51482;47.014;7.652;2022-09-09T01:05:27;14.00;99.90
64951;DHT22;51482;47.014;7.652;2022-09-09T01:07:58;14.00;99.90
64951;DHT22;51482;47.014;7.652;2022-09-09T01:10:44;14.50;99.90
64951;DHT22;51482;47.014;7.652;2022-09-09T01:13:20;14.60;99.90
64951;DHT22;51482;47.014;7.652;2022-09-09T01:15:48;14.10;99.90
64951;DHT22;51482;47.014;7.652;2022-09-09T01:18:17;14.50;99.90
64951;DHT22;51482;47.014;7.652;2022-09-09T01:26:39;14.10;99.90
64951;DHT22;51482;47.014;7.652;2022-09-09T01:29:14;14.20;99.90
64951;DHT22;51482;47.014;7.652;2022-09-09T01:31:54;14.20;99.90
64951;DHT22;51482;47.014;7.652;2022-09-09T01:34:20;14.20;99.90
64951;DHT22;51482;47.014;7.652;2022-09-09T01:36:53;13.80;99.90
64951;DHT22;51482;47.014;7.652;2022-09-09T01:39:22;14.80;99.90
64951;DHT22;51482;47.014;7.652;2022-09-09T01:41:47;14.10;99.90
64951;DHT22;51482;47.014;7.652;2022-09-09T01:44:13;14.20;99.90
64951;DHT22;51482;47.014;7.652;2022-09-09T01:46:39;14.30;99.90
64951;DHT22;51482;47.014;7.652;2022-09-09T01:49:06;14.20;99.90
64951;DHT22;51482;47.014;7.652;2022-09-09T01:51:33;14.80;99.90
64951;DHT22;51482;47.014;7.652;2022-09-09T01:53:59;14.60;99.90
64951;DHT22;51482;47.014;7.652;2022-09-09T02:02:10;14.60;99.90
64951;DHT22;51482;47.014;7.652;2022-09-09T02:04:40;14.30;99.90
64951;DHT22;51482;47.014;7.652;2022-09-09T02:09:40;14.80;99.90
64951;DHT22;51482;47.014;7.652;2022-09-09T02:12:16;14.30;99.90
64951;DHT22;51482;47.014;7.652;2022-09-09T02:14:49;14.30;99.90
64951;DHT22;51482;47.014;7.652;2022-09-09T02:17:22;14.20;99.90
64951;DHT22;51482;47.014;7.652;2022-09-09T02:19:54;14.20;99.90
64951;DHT22;51482;47.014;7.652;2022-09-09T02:22:24;14.10;99.90
64951;DHT22;51482;47.014;7.652;2022-09-09T02:24:52;14.10;99.90
64951;DHT22;51482;47.014;7.652;2022-09-09T02:27:21;14.10;99.90
64951;DHT22;51482;47.014;7.652;2022-09-09T02:29:49;14.10;99.90
64951;DHT22;51482;47.014;7.652;2022-09-09T02:32:19;14.40;99.90
64951;DHT22;51482;47.014;7.652;2022-09-09T02:35:00;14.20;99.90
64951;DHT22;51482;47.014;7.652;2022-09-09T02:37:33;14.30;99.90
64951;DHT22;51482;47.014;7.652;2022-09-09T02:40:02;14.80;99.90
64951;DHT22;51482;47.014;7.652;2022-09-09T02:42:28;14.20;99.90
64951;DHT22;51482;47.014;7.652;2022-09-09T02:44:54;13.80;99.90
64951;DHT22;51482;47.014;7.652;2022-09-09T02:47:25;14.70;99.90
64951;DHT22;51482;47.014;7.652;2022-09-09T02:53:17;14.10;99.90
64951;DHT22;51482;47.014;7.652;2022-09-09T02:56:04;14.90;99.90
64951;DHT22;51482;47.014;7.652;2022-09-09T02:58:32;14.20;99.90
64951;DHT22;51482;47.014;7.652;2022-09-09T03:00:58;14.20;99.90
64951;DHT22;51482;47.014;7.652;2022-09-09T03:03:26;14.60;99.90
64951;DHT22;51482;47.014;7.652;2022-09-09T03:05:52;14.30;99.90
64951;DHT22;51482;47.014;7.652;2022-09-09T03:08:18;14.30;99.90
64951;DHT22;51482;47.014;7.652;2022-09-09T03:10:43;14.20;99.90
64951;DHT22;51482;47.014;7.652;2022-09-09T03:13:10;14.90;99.90
64951;DHT22;51482;47.014;7.652;2022-09-09T03:15:36;14.30;99.90
64951;DHT22;51482;47.014;7.652;2022-09-09T03:18:02;14.90;99.90
64951;DHT22;51482;47.014;7.652;2022-09-09T03:20:29;14.30;99.90
64951;DHT22;51482;47.014;7.652;2022-09-09T03:22:56;14.30;99.90
64951;DHT22;51482;47.014;7.652;2022-09-09T03:25:22;14.80;99.90
64951;DHT22;51482;47.014;7.652;2022-09-09T03:27:52;14.10;99.90
64951;DHT22;51482;47.014;7.652;2022-09-09T03:30:23;14.40;99.90
64951;DHT22;51482;47.014;7.652;2022-09-09T03:32:48;14.50;99.90
64951;DHT22;51482;47.014;7.652;2022-09-09T03:35:14;14.50;99.90
64951;DHT22;51482;47.014;7.652;2022-09-09T03:37:41;14.50;99.90
64951;DHT22;51482;47.014;7.652;2022-09-09T03:40:07;14.10;99.90
64951;DHT22;51482;47.014;7.652;2022-09-09T03:42:35;14.50;99.90
64951;DHT22;51482;47.014;7.652;2022-09-09T03:45:03;15.10;99.90
64951;DHT22;51482;47.014;7.652;2022-09-09T03:47:29;14.60;99.90
64951;DHT22;51482;47.014;7.652;2022-09-09T03:49:55;15.10;99.90
64951;DHT22;51482;47.014;7.652;2022-09-09T03:52:21;14.50;99.90
64951;DHT22;51482;47.014;7.652;2022-09-09T03:54:50;15.20;99.90
64951;DHT22;51482;47.014;7.652;2022-09-09T03:57:16;14.50;99.90
64951;DHT22;51482;47.014;7.652;2022-09-09T03:59:42;15.00;99.90
64951;DHT22;51482;47.014;7.652;2022-09-09T04:02:08;14.50;99.90
64951;DHT22;51482;47.014;7.652;2022-09-09T04:04:34;14.90;99.90
64951;DHT22;51482;47.014;7.652;2022-09-09T04:07:00;15.10;99.90
64951;DHT22;51482;47.014;7.652;2022-09-09T04:09:25;14.70;99.90
64951;DHT22;51482;47.014;7.652;2022-09-09T04:11:51;15.00;99.90
64951;DHT22;51482;47.014;7.652;2022-09-09T04:14:18;14.50;99.90
64951;DHT22;51482;47.014;7.652;2022-09-09T04:16:44;14.60;99.90
64951;DHT22;51482;47.014;7.652;2022-09-09T04:19:11;15.00;99.90
64951;DHT22;51482;47.014;7.652;2022-09-09T04:21:39;15.20;99.90
64951;DHT22;51482;47.014;7.652;2022-09-09T04:24:06;14.60;99.90
64951;DHT22;51482;47.014;7.652;2022-09-09T04:26:32;14.60;99.90
64951;DHT22;51482;47.014;7.652;2022-09-09T04:28:58;14.60;99.90
64951;DHT22;51482;47.014;7.652;2022-09-09T04:31:24;14.60;99.90
64951;DHT22;51482;47.014;7.652;2022-09-09T04:33:52;14.60;99.90
64951;DHT22;51482;47.014;7.652;2022-09-09T04:36:18;14.60;99.90
64951;DHT22;51482;47.014;7.652;2022-09-09T04:38:45;14.60;99.90
64951;DHT22;51482;47.014;7.652;2022-09-09T04:41:11;15.10;99.90
64951;DHT22;51482;47.014;7.652;2022-09-09T04:43:38;15.00;99.90
64951;DHT22;51482;47.014;7.652;2022-09-09T04:46:04;14.60;99.90
64951;DHT22;51482;47.014;7.652;2022-09-09T04:48:30;15.30;99.90
64951;DHT22;51482;47.014;7.652;2022-09-09T04:51:02;14.60;99.90
64951;DHT22;51482;47.014;7.652;2022-09-09T04:53:28;14.60;99.90
64951;DHT22;51482;47.014;7.652;2022-09-09T04:56:02;15.00;99.90
64951;DHT22;51482;47.014;7.652;2022-09-09T04:58:27;15.20;99.90
64951;DHT22;51482;47.014;7.652;2022-09-09T05:00:53;14.60;99.90
64951;DHT22;51482;47.014;7.652;2022-09-09T05:03:19;15.20;99.90
64951;DHT22;51482;47.014;7.652;2022-09-09T05:05:44;14.60;99.90
64951;DHT22;51482;47.014;7.652;2022-09-09T05:08:10;15.20;99.90
64951;DHT22;51482;47.014;7.652;2022-09-09T05:10:38;15.10;99.90
64951;DHT22;51482;47.014;7.652;2022-09-09T05:13:04;14.60;99.90
64951;DHT22;51482;47.014;7.652;2022-09-09T05:15:30;14.60;99.90
64951;DHT22;51482;47.014;7.652;2022-09-09T05:17:58;14.50;99.90
64951;DHT22;51482;47.014;7.652;2022-09-09T05:20:24;14.50;99.90
64951;DHT22;51482;47.014;7.652;2022-09-09T05:22:53;14.50;99.90
64951;DHT22;51482;47.014;7.652;2022-09-09T05:25:19;14.50;99.90
64951;DHT22;51482;47.014;7.652;2022-09-09T05:27:45;13.90;99.90
64951;DHT22;51482;47.014;7.652;2022-09-09T05:30:11;14.50;99.90
64951;DHT22;51482;47.014;7.652;2022-09-09T05:32:36;14.50;99.90
64951;DHT22;51482;47.014;7.652;2022-09-09T05:35:02;14.50;99.90
64951;DHT22;51482;47.014;7.652;2022-09-09T05:37:28;14.60;99.90
64951;DHT22;51482;47.014;7.652;2022-09-09T05:39:55;14.60;99.90
64951;DHT22;51482;47.014;7.652;2022-09-09T05:42:21;14.90;99.90
64951;DHT22;51482;47.014;7.652;2022-09-09T05:44:46;15.00;99.90
64951;DHT22;51482;47.014;7.652;2022-09-09T05:47:12;15.00;99.90
64951;DHT22;51482;47.014;7.652;2022-09-09T05:49:37;14.70;99.90
64951;DHT22;51482;47.014;7.652;2022-09-09T05:52:03;14.70;99.90
64951;DHT22;51482;47.014;7.652;2022-09-09T05:54:29;14.60;99.90
64951;DHT22;51482;47.014;7.652;2022-09-09T05:56:55;15.20;99.90
64951;DHT22;51482;47.014;7.652;2022-09-09T05:59:21;14.30;99.90
64951;DHT22;51482;47.014;7.652;2022-09-09T06:01:48;14.70;99.90
64951;DHT22;51482;47.014;7.652;2022-09-09T06:04:14;14.80;99.90
64951;DHT22;51482;47.014;7.652;2022-09-09T06:06:40;14.80;99.90
64951;DHT22;51482;47.014;7.652;2022-09-09T06:09:08;14.80;99.90
64951;DHT22;51482;47.014;7.652;2022-09-09T06:11:39;15.40;99.90
64951;DHT22;51482;47.014;7.652;2022-09-09T06:14:05;15.40;99.90
64951;DHT22;51482;47.014;7.652;2022-09-09T06:16:32;15.30;99.90
64951;DHT22;51482;47.014;7.652;2022-09-09T06:18:58;14.60;99.90
64951;DHT22;51482;47.014;7.652;2022-09-09T06:21:29;15.40;99.90
64951;DHT22;51482;47.014;7.652;2022-09-09T06:23:56;15.30;99.90
64951;DHT22;51482;47.014;7.652;2022-09-09T06:26:32;15.00;99.90
64951;DHT22;51482;47.014;7.652;2022-09-09T06:28:59;15.50;99.90
64951;DHT22;51482;47.014;7.652;2022-09-09T06:31:27;15.50;99.90
64951;DHT22;51482;47.014;7.652;2022-09-09T06:33:56;15.80;99.90
64951;DHT22;51482;47.014;7.652;2022-09-09T06:36:27;16.10;99.90
64951;DHT22;51482;47.014;7.652;2022-09-09T06:38:54;15.30;99.90
64951;DHT22;51482;47.014;7.652;2022-09-09T06:41:21;15.50;99.90
64951;DHT22;51482;47.014;7.652;2022-09-09T06:43:47;15.40;99.90
64951;DHT22;51482;47.014;7.652;2022-09-09T06:46:18;15.70;99.90
64951;DHT22;51482;47.014;7.652;2022-09-09T06:48:44;15.40;99.90
64951;DHT22;51482;47.014;7.652;2022-09-09T06:51:17;15.40;99.90
64951;DHT22;51482;47.014;7.652;2022-09-09T06:53:44;15.70;99.90
64951;DHT22;51482;47.014;7.652;2022-09-09T06:58:39;15.40;99.90
64951;DHT22;51482;47.014;7.652;2022-09-09T07:01:09;15.40;99.90
64951;DHT22;51482;47.014;7.652;2022-09-09T07:03:35;15.50;99.90
64951;DHT22;51482;47.014;7.652;2022-09-09T07:06:01;15.40;99.90
64951;DHT22;51482;47.014;7.652;2022-09-09T07:08:27;15.50;99.90
64951;DHT22;51482;47.014;7.652;2022-09-09T07:10:53;16.10;99.90
64951;DHT22;51482;47.014;7.652;2022-09-09T07:13:28;16.10;99.90
64951;DHT22;51482;47.014;7.652;2022-09-09T07:15:54;15.90;99.90
64951;DHT22;51482;47.014;7.652;2022-09-09T07:18:20;16.00;99.90
64951;DHT22;51482;47.014;7.652;2022-09-09T07:20:55;16.10;99.90
64951;DHT22;51482;47.014;7.652;2022-09-09T07:23:23;16.30;99.90
64951;DHT22;51482;47.014;7.652;2022-09-09T07:25:48;16.50;99.90
64951;DHT22;51482;47.014;7.652;2022-09-09T07:28:14;17.00;99.90
64951;DHT22;51482;47.014;7.652;2022-09-09T07:30:40;17.30;99.90
64951;DHT22;51482;47.014;7.652;2022-09-09T07:33:06;17.00;99.90
64951;DHT22;51482;47.014;7.652;2022-09-09T07:35:32;17.30;99.90
64951;DHT22;51482;47.014;7.652;2022-09-09T07:38:00;17.50;99.90
64951;DHT22;51482;47.014;7.652;2022-09-09T07:40:26;18.30;99.90
64951;DHT22;51482;47.014;7.652;2022-09-09T07:42:52;18.10;99.90
64951;DHT22;51482;47.014;7.652;2022-09-09T07:45:17;18.40;99.90
64951;DHT22;51482;47.014;7.652;2022-09-09T07:47:43;18.90;99.90
64951;DHT22;51482;47.014;7.652;2022-09-09T07:50:09;19.50;99.90
64951;DHT22;51482;47.014;7.652;2022-09-09T07:52:35;19.20;99.90
64951;DHT22;51482;47.014;7.652;2022-09-09T07:55:02;19.60;99.90
64951;DHT22;51482;47.014;7.652;2022-09-09T07:57:29;19.70;99.90
64951;DHT22;51482;47.014;7.652;2022-09-09T07:59:56;20.50;99.90
64951;DHT22;51482;47.014;7.652;2022-09-09T08:02:23;20.60;99.90
64951;DHT22;51482;47.014;7.652;2022-09-09T08:04:48;19.70;99.90
64951;DHT22;51482;47.014;7.652;2022-09-09T08:07:14;19.70;99.90
64951;DHT22;51482;47.014;7.652;2022-09-09T08:09:41;19.70;99.90
64951;DHT22;51482;47.014;7.652;2022-09-09T08:12:07;19.50;99.90
64951;DHT22;51482;47.014;7.652;2022-09-09T08:14:34;19.40;99.90
64951;DHT22;51482;47.014;7.652;2022-09-09T08:17:00;19.20;99.90
64951;DHT22;51482;47.014;7.652;2022-09-09T08:19:25;19.10;99.90
64951;DHT22;51482;47.014;7.652;2022-09-09T08:21:51;18.80;99.90
64951;DHT22;51482;47.014;7.652;2022-09-09T08:24:17;18.60;99.90
64951;DHT22;51482;47.014;7.652;2022-09-09T08:26:47;19.10;99.90
64951;DHT22;51482;47.014;7.652;2022-09-09T08:29:15;18.20;99.90
64951;DHT22;51482;47.014;7.652;2022-09-09T08:31:44;18.40;99.90
64951;DHT22;51482;47.014;7.652;2022-09-09T08:34:11;17.70;99.90
64951;DHT22;51482;47.014;7.652;2022-09-09T08:36:39;17.40;99.90
64951;DHT22;51482;47.014;7.652;2022-09-09T08:39:06;17.10;99.90
64951;DHT22;51482;47.014;7.652;2022-09-09T08:44:32;17.50;99.90
64951;DHT22;51482;47.014;7.652;2022-09-09T08:52:39;16.60;99.90
64951;DHT22;51482;47.014;7.652;2022-09-09T08:55:23;16.70;99.90
64951;DHT22;51482;47.014;7.652;2022-09-09T08:57:52;17.40;99.90
64951;DHT22;51482;47.014;7.652;2022-09-09T09:00:19;17.20;99.90
64951;DHT22;51482;47.014;7.652;2022-09-09T09:03:04;18.10;99.90
64951;DHT22;51482;47.014;7.652;2022-09-09T09:05:47;17.60;99.90
64951;DHT22;51482;47.014;7.652;2022-09-09T09:08:43;18.50;99.90
64951;DHT22;51482;47.014;7.652;2022-09-09T09:11:12;18.40;99.90
64951;DHT22;51482;47.014;7.652;2022-09-09T09:13:59;18.70;99.90
64951;DHT22;51482;47.014;7.652;2022-09-09T09:16:34;19.00;99.90
64951;DHT22;51482;47.014;7.652;2022-09-09T09:19:02;19.70;99.90
64951;DHT22;51482;47.014;7.652;2022-09-09T09:21:45;20.60;99.90
64951;DHT22;51482;47.014;7.652;2022-09-09T09:24:27;20.70;99.90
64951;DHT22;51482;47.014;7.652;2022-09-09T09:26:59;20.70;99.90
64951;DHT22;51482;47.014;7.652;2022-09-09T09:29:26;21.80;99.90
64951;DHT22;51482;47.014;7.652;2022-09-09T09:31:54;22.20;99.90
64951;DHT22;51482;47.014;7.652;2022-09-09T09:34:20;22.10;99.90
64951;DHT22;51482;47.014;7.652;2022-09-09T09:36:53;22.00;99.90
64951;DHT22;51482;47.014;7.652;2022-09-09T09:39:27;22.10;99.90
64951;DHT22;51482;47.014;7.652;2022-09-09T09:41:53;22.80;99.90
64951;DHT22;51482;47.014;7.652;2022-09-09T09:44:26;22.50;99.90
64951;DHT22;51482;47.014;7.652;2022-09-09T09:46:52;22.80;99.90
64951;DHT22;51482;47.014;7.652;2022-09-09T09:49:18;22.90;99.90
64951;DHT22;51482;47.014;7.652;2022-09-09T09:51:44;23.20;99.90
64951;DHT22;51482;47.014;7.652;2022-09-09T09:56:39;23.20;99.90
64951;DHT22;51482;47.014;7.652;2022-09-09T09:59:17;23.30;99.90
64951;DHT22;51482;47.014;7.652;2022-09-09T10:01:44;23.20;99.90
64951;DHT22;51482;47.014;7.652;2022-09-09T10:04:14;23.10;99.90
64951;DHT22;51482;47.014;7.652;2022-09-09T10:06:41;23.70;99.90
64951;DHT22;51482;47.014;7.652;2022-09-09T10:09:24;24.30;99.90
64951;DHT22;51482;47.014;7.652;2022-09-09T10:15:06;24.10;99.90
64951;DHT22;51482;47.014;7.652;2022-09-09T10:20:32;24.80;99.90
64951;DHT22;51482;47.014;7.652;2022-09-09T10:23:26;24.30;99.90
64951;DHT22;51482;47.014;7.652;2022-09-09T10:26:00;24.30;99.90
64951;DHT22;51482;47.014;7.652;2022-09-09T10:28:52;23.90;99.90
64951;DHT22;51482;47.014;7.652;2022-09-09T10:31:31;24.10;99.90
64951;DHT22;51482;47.014;7.652;2022-09-09T10:34:39;24.30;99.90
64951;DHT22;51482;47.014;7.652;2022-09-09T10:40:33;23.60;99.90
64951;DHT22;51482;47.014;7.652;2022-09-09T10:56:39;25.10;97.20
64951;DHT22;51482;47.014;7.652;2022-09-09T10:59:26;25.60;94.80
64951;DHT22;51482;47.014;7.652;2022-09-09T11:02:03;25.90;93.50
64951;DHT22;51482;47.014;7.652;2022-09-09T11:04:38;25.80;91.40
64951;DHT22;51482;47.014;7.652;2022-09-09T11:07:09;26.00;89.10
64951;DHT22;51482;47.014;7.652;2022-09-09T11:09:40;26.50;87.30
64951;DHT22;51482;47.014;7.652;2022-09-09T11:12:12;26.60;87.50
64951;DHT22;51482;47.014;7.652;2022-09-09T11:14:48;26.30;82.90
64951;DHT22;51482;47.014;7.652;2022-09-09T11:17:29;26.60;87.50
64951;DHT22;51482;47.014;7.652;2022-09-09T11:19:56;26.80;84.70
64951;DHT22;51482;47.014;7.652;2022-09-09T11:22:32;27.30;81.60
64951;DHT22;51482;47.014;7.652;2022-09-09T11:25:04;27.10;78.00
64951;DHT22;51482;47.014;7.652;2022-09-09T11:30:21;27.80;77.40
64951;DHT22;51482;47.014;7.652;2022-09-09T11:33:16;27.60;72.70
64951;DHT22;51482;47.014;7.652;2022-09-09T11:38:36;27.90;70.60
64951;DHT22;51482;47.014;7.652;2022-09-09T11:41:05;26.80;69.10
64951;DHT22;51482;47.014;7.652;2022-09-09T11:43:45;26.20;71.40
64951;DHT22;51482;47.014;7.652;2022-09-09T11:46:13;25.70;76.60
64951;DHT22;51482;47.014;7.652;2022-09-09T11:48:45;26.20;77.40
64951;DHT22;51482;47.014;7.652;2022-09-09T11:53:56;27.60;71.90
64951;DHT22;51482;47.014;7.652;2022-09-09T11:59:06;28.20;73.00
64951;DHT22;51482;47.014;7.652;2022-09-09T12:01:45;28.50;70.50
64951;DHT22;51482;47.014;7.652;2022-09-09T12:04:18;29.00;65.40
64951;DHT22;51482;47.014;7.652;2022-09-09T12:06:53;28.90;62.90
64951;DHT22;51482;47.014;7.652;2022-09-09T12:09:45;28.80;64.00
64951;DHT22;51482;47.014;7.652;2022-09-09T12:17:20;28.40;64.00
64951;DHT22;51482;47.014;7.652;2022-09-09T12:19:46;28.40;59.70
64951;DHT22;51482;47.014;7.652;2022-09-09T12:28:22;28.90;58.00
64951;DHT22;51482;47.014;7.652;2022-09-09T12:31:07;29.00;59.20
64951;DHT22;51482;47.014;7.652;2022-09-09T12:33:38;29.40;55.80
64951;DHT22;51482;47.014;7.652;2022-09-09T12:36:12;28.80;53.60
64951;DHT22;51482;47.014;7.652;2022-09-09T12:38:41;28.80;55.60
64951;DHT22;51482;47.014;7.652;2022-09-09T12:41:19;28.50;53.40
64951;DHT22;51482;47.014;7.652;2022-09-09T12:43:46;29.50;55.10
64951;DHT22;51482;47.014;7.652;2022-09-09T12:46:22;29.30;54.50
64951;DHT22;51482;47.014;7.652;2022-09-09T12:48:51;28.90;49.20
64951;DHT22;51482;47.014;7.652;2022-09-09T12:53:51;28.30;50.30
64951;DHT22;51482;47.014;7.652;2022-09-09T12:56:22;28.50;51.10
64951;DHT22;51482;47.014;7.652;2022-09-09T12:58:50;28.70;50.20
64951;DHT22;51482;47.014;7.652;2022-09-09T13:03:50;28.30;48.40
64951;DHT22;51482;47.014;7.652;2022-09-09T13:06:24;28.30;51.70
64951;DHT22;51482;47.014;7.652;2022-09-09T13:08:51;28.40;51.10
64951;DHT22;51482;47.014;7.652;2022-09-09T13:13:56;28.00;52.60
64951;DHT22;51482;47.014;7.652;2022-09-09T13:16:28;27.90;52.00
64951;DHT22;51482;47.014;7.652;2022-09-09T13:19:02;28.30;52.30
64951;DHT22;51482;47.014;7.652;2022-09-09T13:21:42;28.40;53.00
64951;DHT22;51482;47.014;7.652;2022-09-09T13:24:31;27.60;51.10
64951;DHT22;51482;47.014;7.652;2022-09-09T13:27:05;27.90;51.60
64951;DHT22;51482;47.014;7.652;2022-09-09T13:29:51;27.60;53.40
64951;DHT22;51482;47.014;7.652;2022-09-09T13:32:21;27.80;51.30
64951;DHT22;51482;47.014;7.652;2022-09-09T13:34:55;28.00;52.70
64951;DHT22;51482;47.014;7.652;2022-09-09T13:37:36;28.10;52.60
64951;DHT22;51482;47.014;7.652;2022-09-09T13:40:06;28.40;52.40
64951;DHT22;51482;47.014;7.652;2022-09-09T13:42:34;27.90;53.30
64951;DHT22;51482;47.014;7.652;2022-09-09T13:45:01;27.30;53.20
64951;DHT22;51482;47.014;7.652;2022-09-09T13:47:32;27.90;54.40
64951;DHT22;51482;47.014;7.652;2022-09-09T13:49:58;27.70;50.80
64951;DHT22;51482;47.014;7.652;2022-09-09T13:52:25;28.20;53.00
64951;DHT22;51482;47.014;7.652;2022-09-09T13:54:52;28.30;53.50
64951;DHT22;51482;47.014;7.652;2022-09-09T13:57:22;27.40;52.70
64951;DHT22;51482;47.014;7.652;2022-09-09T13:59:50;28.20;54.50
64951;DHT22;51482;47.014;7.652;2022-09-09T14:02:17;28.00;54.90
64951;DHT22;51482;47.014;7.652;2022-09-09T14:04:43;28.10;54.30
64951;DHT22;51482;47.014;7.652;2022-09-09T14:07:12;27.90;53.40
64951;DHT22;51482;47.014;7.652;2022-09-09T14:09:39;28.10;54.80
64951;DHT22;51482;47.014;7.652;2022-09-09T14:12:08;27.90;54.00
64951;DHT22;51482;47.014;7.652;2022-09-09T14:14:33;27.90;54.60
64951;DHT22;51482;47.014;7.652;2022-09-09T14:17:00;27.40;53.70
64951;DHT22;51482;47.014;7.652;2022-09-09T14:19:25;27.20;53.20
64951;DHT22;51482;47.014;7.652;2022-09-09T14:21:51;27.70;53.60
64951;DHT22;51482;47.014;7.652;2022-09-09T14:24:17;27.20;52.10
64951;DHT22;51482;47.014;7.652;2022-09-09T14:26:42;27.50;52.70
64951;DHT22;51482;47.014;7.652;2022-09-09T14:29:08;27.70;53.00
64951;DHT22;51482;47.014;7.652;2022-09-09T14:31:34;28.50;53.30
64951;DHT22;51482;47.014;7.652;2022-09-09T14:33:59;28.50;52.40
64951;DHT22;51482;47.014;7.652;2022-09-09T14:36:25;28.30;50.80
64951;DHT22;51482;47.014;7.652;2022-09-09T14:38:51;28.50;52.30
64951;DHT22;51482;47.014;7.652;2022-09-09T14:41:18;28.50;51.20
64951;DHT22;51482;47.014;7.652;2022-09-09T14:43:45;28.40;51.10
64951;DHT22;51482;47.014;7.652;2022-09-09T14:46:16;28.40;52.70
64951;DHT22;51482;47.014;7.652;2022-09-09T14:48:42;28.60;53.00
64951;DHT22;51482;47.014;7.652;2022-09-09T14:51:12;28.40;52.40
64951;DHT22;51482;47.014;7.652;2022-09-09T14:53:39;28.30;50.60
64951;DHT22;51482;47.014;7.652;2022-09-09T14:56:10;28.70;52.80
64951;DHT22;51482;47.014;7.652;2022-09-09T14:58:37;28.70;50.00
64951;DHT22;51482;47.014;7.652;2022-09-09T15:01:08;28.70;51.50
64951;DHT22;51482;47.014;7.652;2022-09-09T15:03:36;28.60;49.20
64951;DHT22;51482;47.014;7.652;2022-09-09T15:06:07;28.90;48.20
64951;DHT22;51482;47.014;7.652;2022-09-09T15:08:37;28.10;48.20
64951;DHT22;51482;47.014;7.652;2022-09-09T15:11:04;28.00;49.30
64951;DHT22;51482;47.014;7.652;2022-09-09T15:13:30;27.50;50.60
64951;DHT22;51482;47.014;7.652;2022-09-09T15:15:55;27.90;50.50
64951;DHT22;51482;47.014;7.652;2022-09-09T15:18:21;27.60;51.40
64951;DHT22;51482;47.014;7.652;2022-09-09T15:20:47;26.80;50.10
64951;DHT22;51482;47.014;7.652;2022-09-09T15:23:13;26.80;50.60
64951;DHT22;51482;47.014;7.652;2022-09-09T15:25:49;26.40;50.30
64951;DHT22;51482;47.014;7.652;2022-09-09T15:28:15;26.40;53.50
64951;DHT22;51482;47.014;7.652;2022-09-09T15:30:41;26.60;52.40
64951;DHT22;51482;47.014;7.652;2022-09-09T15:33:09;26.40;52.50
64951;DHT22;51482;47.014;7.652;2022-09-09T15:35:35;26.60;53.90
64951;DHT22;51482;47.014;7.652;2022-09-09T15:38:02;27.10;52.80
64951;DHT22;51482;47.014;7.652;2022-09-09T15:40:30;26.60;51.70
64951;DHT22;51482;47.014;7.652;2022-09-09T15:42:57;26.80;53.10
64951;DHT22;51482;47.014;7.652;2022-09-09T15:45:23;26.70;51.60
64951;DHT22;51482;47.014;7.652;2022-09-09T15:47:48;26.80;51.30
64951;DHT22;51482;47.014;7.652;2022-09-09T15:50:14;26.90;52.30
64951;DHT22;51482;47.014;7.652;2022-09-09T15:52:40;26.90;54.40
64951;DHT22;51482;47.014;7.652;2022-09-09T15:55:06;26.60;52.20
64951;DHT22;51482;47.014;7.652;2022-09-09T15:57:34;26.30;53.10
64951;DHT22;51482;47.014;7.652;2022-09-09T16:00:01;26.20;55.00
64951;DHT22;51482;47.014;7.652;2022-09-09T16:02:26;25.70;54.40
64951;DHT22;51482;47.014;7.652;2022-09-09T16:04:52;25.70;55.20
64951;DHT22;51482;47.014;7.652;2022-09-09T16:07:18;24.60;55.60
64951;DHT22;51482;47.014;7.652;2022-09-09T16:09:43;24.30;57.00
64951;DHT22;51482;47.014;7.652;2022-09-09T16:12:09;24.70;58.90
64951;DHT22;51482;47.014;7.652;2022-09-09T16:14:37;23.90;59.30
64951;DHT22;51482;47.014;7.652;2022-09-09T16:17:05;23.70;58.50
64951;DHT22;51482;47.014;7.652;2022-09-09T16:19:31;23.60;61.90
64951;DHT22;51482;47.014;7.652;2022-09-09T16:21:57;23.50;59.80
64951;DHT22;51482;47.014;7.652;2022-09-09T16:24:23;23.90;65.00
64951;DHT22;51482;47.014;7.652;2022-09-09T16:26:51;23.70;63.20
64951;DHT22;51482;47.014;7.652;2022-09-09T16:29:17;23.10;63.50
64951;DHT22;51482;47.014;7.652;2022-09-09T16:31:45;23.30;67.40
64951;DHT22;51482;47.014;7.652;2022-09-09T16:34:12;22.90;66.70
64951;DHT22;51482;47.014;7.652;2022-09-09T16:36:40;22.90;66.20
64951;DHT22;51482;47.014;7.652;2022-09-09T16:39:08;22.30;69.10
64951;DHT22;51482;47.014;7.652;2022-09-09T16:41:35;22.40;71.60
64951;DHT22;51482;47.014;7.652;2022-09-09T16:44:03;22.10;66.50
64951;DHT22;51482;47.014;7.652;2022-09-09T16:46:30;21.90;66.30
64951;DHT22;51482;47.014;7.652;2022-09-09T16:48:57;21.70;67.70
64951;DHT22;51482;47.014;7.652;2022-09-09T16:51:27;21.50;66.70
64951;DHT22;51482;47.014;7.652;2022-09-09T16:53:54;21.10;70.60
64951;DHT22;51482;47.014;7.652;2022-09-09T16:56:22;20.10;74.10
64951;DHT22;51482;47.014;7.652;2022-09-09T16:58:59;18.90;75.50
64951;DHT22;51482;47.014;7.652;2022-09-09T17:01:27;19.50;79.90
64951;DHT22;51482;47.014;7.652;2022-09-09T17:03:57;19.80;83.20
64951;DHT22;51482;47.014;7.652;2022-09-09T17:06:23;19.00;85.90
64951;DHT22;51482;47.014;7.652;2022-09-09T17:08:54;19.40;90.20
64951;DHT22;51482;47.014;7.652;2022-09-09T17:11:20;18.70;90.80
64951;DHT22;51482;47.014;7.652;2022-09-09T17:13:47;18.60;91.20
64951;DHT22;51482;47.014;7.652;2022-09-09T17:16:14;18.60;93.10
64951;DHT22;51482;47.014;7.652;2022-09-09T17:18:40;19.10;94.90
64951;DHT22;51482;47.014;7.652;2022-09-09T17:21:08;19.50;96.70
64951;DHT22;51482;47.014;7.652;2022-09-09T17:23:35;18.80;97.50
64951;DHT22;51482;47.014;7.652;2022-09-09T17:26:06;19.70;99.90